createdAt,value
2018-09-04T00:00:27.733Z,5.60
2018-09-04T00:05:18.639Z,5.93
2018-09-04T00:10:09.680Z,5.77
2018-09-04T00:15:00.569Z,5.93
2018-09-04T00:19:51.480Z,5.97
2018-09-04T00:24:42.450Z,9.40
2018-09-04T00:29:33.365Z,7.30
2018-09-04T00:34:24.375Z,5.60
2018-09-04T00:39:15.236Z,5.83
2018-09-04T00:44:06.901Z,5.63
2018-09-04T00:48:57.846Z,6.17
2018-09-04T00:53:48.788Z,6.40
2018-09-04T00:58:39.721Z,5.63
2018-09-04T01:03:31.449Z,6.40
2018-09-04T01:08:22.388Z,6.73
2018-09-04T01:13:13.318Z,5.60
2018-09-04T01:18:04.229Z,6.23
2018-09-04T01:22:55.919Z,5.97
2018-09-04T01:27:47.582Z,5.23
2018-09-04T01:32:39.247Z,6.30
2018-09-04T01:37:30.162Z,5.00
2018-09-04T01:42:21.162Z,6.17
2018-09-04T01:47:12.059Z,5.37
2018-09-04T01:52:03.726Z,5.20
2018-09-04T01:56:54.656Z,6.10
2018-09-04T02:01:45.583Z,6.10
2018-09-04T02:06:37.230Z,6.03
2018-09-04T02:11:28.567Z,6.67
2018-09-04T02:16:19.560Z,6.10
2018-09-04T02:21:10.564Z,6.20
2018-09-04T02:26:01.483Z,5.20
2018-09-04T02:30:53.117Z,6.23
2018-09-04T02:35:44.043Z,5.30
2018-09-04T02:40:34.982Z,6.10
2018-09-04T02:45:26.522Z,5.43
2018-09-04T02:50:18.181Z,6.13
2018-09-04T02:55:09.667Z,5.70
2018-09-04T03:00:00.625Z,6.70
2018-09-04T03:04:51.558Z,5.90
2018-09-04T03:09:43.226Z,5.17
2018-09-04T03:19:52.112Z,5.78
2018-09-04T03:24:43.761Z,5.73
2018-09-04T03:29:34.706Z,5.50
2018-09-04T03:34:26.243Z,6.20
2018-09-04T03:39:17.892Z,6.13
2018-09-04T03:44:08.851Z,6.97
2018-09-04T03:49:01.085Z,6.40
2018-09-04T03:53:52.735Z,6.03
2018-09-04T03:58:43.689Z,7.20
2018-09-04T04:03:34.603Z,5.53
2018-09-04T04:08:25.523Z,6.57
2018-09-04T04:13:16.424Z,6.00
2018-09-04T04:18:09.780Z,6.60
2018-09-04T04:23:00.749Z,5.63
2018-09-04T04:27:52.416Z,6.40
2018-09-04T04:32:43.369Z,6.70
2018-09-04T04:37:35.763Z,6.67
2018-09-04T04:42:26.698Z,5.63
2018-09-04T04:47:17.615Z,6.03
2018-09-04T04:52:08.570Z,6.27
2018-09-04T04:56:59.495Z,6.27
2018-09-04T05:01:50.422Z,5.73
2018-09-04T05:06:42.090Z,5.87
2018-09-04T05:11:33.058Z,6.00
2018-09-04T05:16:23.953Z,5.80
2018-09-04T05:21:15.624Z,6.00
2018-09-04T05:26:07.284Z,5.60
2018-09-04T05:30:58.202Z,5.60
2018-09-04T05:35:49.177Z,5.90
2018-09-04T05:40:40.121Z,5.47
2018-09-04T05:45:31.877Z,4.93
2018-09-04T05:50:22.814Z,5.37
2018-09-04T05:55:13.835Z,5.53
2018-09-04T06:00:04.770Z,5.23
2018-09-04T06:04:55.692Z,5.00
2018-09-04T06:09:47.344Z,6.00
2018-09-04T06:14:38.276Z,5.50
2018-09-04T06:19:29.192Z,5.43
2018-09-04T06:24:20.853Z,5.30
2018-09-04T06:29:11.805Z,5.87
2018-09-04T06:34:02.752Z,5.93
2018-09-04T06:38:53.668Z,6.33
2018-09-04T06:43:44.589Z,5.93
2018-09-04T06:48:35.519Z,5.40
2018-09-04T06:53:27.186Z,7.00
2018-09-04T06:58:18.088Z,5.63
2018-09-04T07:03:09.760Z,5.20
2018-09-04T07:08:00.664Z,6.23
2018-09-04T07:12:52.326Z,5.63
2018-09-04T07:17:43.260Z,5.10
2018-09-04T07:22:34.213Z,4.63
2018-09-04T07:27:25.138Z,4.60
2018-09-04T07:32:16.098Z,4.53
2018-09-04T07:37:07.002Z,5.43
2018-09-04T07:41:57.953Z,4.30
2018-09-04T07:46:49.612Z,5.07
2018-09-04T07:51:40.558Z,4.50
2018-09-04T07:56:31.530Z,5.50
2018-09-04T08:01:22.472Z,5.13
2018-09-04T08:06:13.378Z,5.37
2018-09-04T08:11:04.314Z,5.70
2018-09-04T08:15:55.227Z,4.47
2018-09-04T08:20:46.222Z,5.60
2018-09-04T08:25:37.086Z,5.07
2018-09-04T08:30:28.754Z,5.03
2018-09-04T08:35:20.429Z,5.10
2018-09-04T08:40:11.346Z,4.40
2018-09-04T08:45:02.270Z,4.73
2018-09-04T08:49:53.202Z,4.07
2018-09-04T08:54:44.122Z,4.57
2018-09-04T08:59:35.770Z,4.67
2018-09-04T09:04:26.685Z,4.90
2018-09-04T09:09:17.629Z,4.80
2018-09-04T09:14:09.296Z,4.53
2018-09-04T09:19:00.223Z,4.93
2018-09-04T09:23:51.138Z,4.63
2018-09-04T09:28:42.063Z,4.50
2018-09-04T09:33:32.982Z,4.40
2018-09-04T09:38:24.645Z,4.57
2018-09-04T09:43:15.591Z,4.37
2018-09-04T09:48:06.507Z,4.40
2018-09-04T09:52:58.224Z,3.93
2018-09-04T09:57:49.115Z,5.10
2018-09-04T10:02:40.027Z,4.60
2018-09-04T10:07:31.717Z,4.43
2018-09-04T10:12:22.604Z,4.73
2018-09-04T10:17:13.513Z,4.40
2018-09-04T10:22:04.450Z,5.37
2018-09-04T10:26:55.422Z,4.67
2018-09-04T10:31:46.331Z,4.50
2018-09-04T10:36:37.242Z,4.60
2018-09-04T10:41:28.181Z,4.90
2018-09-04T10:46:19.104Z,4.60
2018-09-04T10:51:10.020Z,5.90
2018-09-04T10:56:01.687Z,5.00
2018-09-04T11:00:52.634Z,4.50
2018-09-04T11:05:43.570Z,6.33
2018-09-04T11:10:34.473Z,5.50
2018-09-04T11:15:25.399Z,5.10
2018-09-04T11:20:16.346Z,4.40
2018-09-04T11:25:07.264Z,5.87
2018-09-04T11:29:58.185Z,5.20
2018-09-04T11:34:49.117Z,4.50
2018-09-04T11:39:40.039Z,5.07
2018-09-04T11:44:30.951Z,4.70
2018-09-04T11:49:21.883Z,4.87
2018-09-04T11:54:12.804Z,4.80
2018-09-04T11:59:04.477Z,4.67
2018-09-04T12:03:55.436Z,4.80
2018-09-04T12:08:46.344Z,4.93
2018-09-04T12:13:37.317Z,4.27
2018-09-04T12:18:28.240Z,4.70
2018-09-04T12:23:19.910Z,4.43
2018-09-04T12:28:10.845Z,4.87
2018-09-04T12:33:01.768Z,4.40
2018-09-04T12:37:53.431Z,4.37
2018-09-04T12:42:44.332Z,3.93
2018-09-04T12:47:36.005Z,4.80
2018-09-04T12:52:27.656Z,4.37
2018-09-04T12:57:18.594Z,4.47
2018-09-04T13:02:09.511Z,5.20
2018-09-04T13:07:00.421Z,4.40
2018-09-04T13:11:51.386Z,4.43
2018-09-04T13:16:42.336Z,5.00
2018-09-04T13:21:33.266Z,4.47
2018-09-04T13:26:24.202Z,5.10
2018-09-04T13:31:15.154Z,4.77
2018-09-04T13:36:06.073Z,5.43
2018-09-04T13:40:56.986Z,4.87
2018-09-04T13:45:47.908Z,5.10
2018-09-04T13:50:38.837Z,7.17
2018-09-04T13:55:29.833Z,5.80
2018-09-04T14:00:20.776Z,5.03
2018-09-04T14:05:11.715Z,4.60
2018-09-04T14:10:02.631Z,5.00
2018-09-04T14:14:53.576Z,5.07
2018-09-04T14:19:44.508Z,4.67
2018-09-04T14:24:35.452Z,5.00
2018-09-04T14:30:25.786Z,4.97
2018-09-04T14:34:17.370Z,4.80
2018-09-04T14:39:08.347Z,5.13
2018-09-04T14:44:00.777Z,5.03
2018-09-04T14:48:52.438Z,4.90
2018-09-04T14:53:43.405Z,4.60
2018-09-04T14:58:34.363Z,5.00
2018-09-04T15:03:25.274Z,4.20
2018-09-04T15:08:16.953Z,3.90
2018-09-04T15:13:08.614Z,3.93
2018-09-04T15:17:59.554Z,4.27
2018-09-04T15:22:50.493Z,4.40
2018-09-04T15:27:42.229Z,4.07
2018-09-04T15:32:34.638Z,3.07
2018-09-04T15:37:26.296Z,4.67
2018-09-04T15:42:17.212Z,4.30
2018-09-04T15:47:08.132Z,3.50
2018-09-04T15:51:59.047Z,4.07
2018-09-04T15:56:50.718Z,3.70
2018-09-04T16:01:41.638Z,3.87
2018-09-04T16:06:32.567Z,4.10
2018-09-04T16:11:23.480Z,3.60
2018-09-04T16:16:15.338Z,3.50
2018-09-04T16:21:07.037Z,3.40
2018-09-04T16:25:57.970Z,3.40
2018-09-04T16:30:48.880Z,3.40
2018-09-04T16:35:39.904Z,3.60
2018-09-04T16:40:31.535Z,3.10
2018-09-04T16:45:23.183Z,3.77
2018-09-04T16:50:14.918Z,3.20
2018-09-04T16:55:05.958Z,3.50
2018-09-04T16:59:57.035Z,3.40
2018-09-04T17:04:48.023Z,3.43
2018-09-04T17:09:38.957Z,4.33
2018-09-04T17:14:30.682Z,3.17
2018-09-04T17:19:21.598Z,3.17
2018-09-04T17:24:12.507Z,3.00
2018-09-04T17:29:03.434Z,3.50
2018-09-04T17:33:55.114Z,3.50
2018-09-04T17:38:46.044Z,3.43
2018-09-04T17:43:37.018Z,3.43
2018-09-04T17:48:27.946Z,3.60
2018-09-04T17:53:18.881Z,3.70
2018-09-04T17:58:09.805Z,3.67
2018-09-04T18:03:00.724Z,3.17
2018-09-04T18:07:51.644Z,3.30
2018-09-04T18:12:42.568Z,4.40
2018-09-04T18:17:34.224Z,4.60
2018-09-04T18:22:25.138Z,4.03
2018-09-04T18:27:16.051Z,4.07
2018-09-04T18:32:06.959Z,3.60
2018-09-04T18:36:58.629Z,3.53
2018-09-04T18:41:49.555Z,4.53
2018-09-04T18:46:40.481Z,3.80
2018-09-04T18:51:32.125Z,4.33
2018-09-04T18:56:23.041Z,3.57
2018-09-04T19:01:13.999Z,3.60
2018-09-04T19:06:05.658Z,4.10
2018-09-04T19:10:56.576Z,4.30
2018-09-04T19:15:47.599Z,4.10
2018-09-04T19:20:38.525Z,4.03
2018-09-04T19:25:29.444Z,3.80
2018-09-04T19:30:20.565Z,4.20
2018-09-04T19:35:11.628Z,4.10
2018-09-04T19:40:02.586Z,3.90
2018-09-04T19:44:53.589Z,4.07
2018-09-04T19:49:44.669Z,3.87
2018-09-04T19:54:35.647Z,4.77
2018-09-04T19:59:26.640Z,4.30
2018-09-04T20:04:17.663Z,5.90
2018-09-04T20:09:08.661Z,4.10
2018-09-04T20:13:59.656Z,4.47
2018-09-04T20:18:50.786Z,4.73
2018-09-04T20:23:41.817Z,6.00
2018-09-04T20:28:33.664Z,4.83
2018-09-04T20:33:24.806Z,4.50
2018-09-04T20:38:15.793Z,5.13
2018-09-04T20:43:06.778Z,5.37
2018-09-04T20:47:57.927Z,5.57
2018-09-04T20:52:48.922Z,4.70
2018-09-04T20:57:39.858Z,5.10
2018-09-04T21:02:43.401Z,4.93
2018-09-04T21:07:34.518Z,5.17
2018-09-04T21:12:25.720Z,5.23
2018-09-04T21:17:17.647Z,4.50
2018-09-04T21:22:08.642Z,4.40
2018-09-04T21:26:59.628Z,4.93
2018-09-04T21:31:50.566Z,5.03
2018-09-04T21:36:41.549Z,5.10
2018-09-04T21:41:32.506Z,4.50
2018-09-04T21:46:23.508Z,6.73
2018-09-04T21:51:14.462Z,3.67
2018-09-04T21:56:05.651Z,4.23
2018-09-04T22:00:56.758Z,3.90
2018-09-04T22:05:47.895Z,4.80
2018-09-04T22:10:39.060Z,4.20
2018-09-04T22:15:30.098Z,4.93
2018-09-04T22:20:21.201Z,4.47
2018-09-04T22:25:12.333Z,4.50
2018-09-04T22:30:03.553Z,4.47
2018-09-04T22:34:55.499Z,4.30
2018-09-04T22:39:46.582Z,3.97
2018-09-04T22:44:37.653Z,5.93
2018-09-04T22:49:28.723Z,5.57
2018-09-04T22:54:19.713Z,5.20
2018-09-04T22:59:10.784Z,4.50
2018-09-04T23:04:01.975Z,5.20
2018-09-04T23:08:53.039Z,4.43
2018-09-04T23:13:44.900Z,5.20
2018-09-04T23:18:36.977Z,5.90
2018-09-04T23:23:28.140Z,4.83
2018-09-04T23:28:20.487Z,5.20
2018-09-04T23:33:11.522Z,4.73
2018-09-04T23:38:02.664Z,4.80
2018-09-04T23:42:53.783Z,5.23
2018-09-04T23:47:45.624Z,4.40
2018-09-04T23:52:36.626Z,5.57
2018-09-04T23:57:27.584Z,4.80
